Local area metar reports


Our local metar:
KGOO 271510Z AUTO 00000KT 10SM CLR 13/M07 A3027 RMK A01

Decoded:

station                        KGOO
observed_date Thu, 27 Feb 2020 15:10:00 +0000
observed_age 20 min. ago
wind_speed 0
wind_direction 0
wind_direction_label N
visibility_report 10 miles
present_weather_report Dry
clouds_report Clear skies
temperature_f 55
dew_point_f 19
humidity 24
barometer 30.27
remarks A01

Auburn metar:
KAUN 271515Z AUTO 09004KT 10SM CLR 11/M02 A3026 RMK A01

Decoded:

station                        KAUN
observed_date Thu, 27 Feb 2020 15:15:00 +0000
observed_age 15 min. ago
wind_speed 4
wind_direction 90
wind_direction_label E
visibility_report 10 miles
present_weather_report Dry
clouds_report Clear skies
temperature_f 52
dew_point_f 28
humidity 41
barometer 30.26
remarks A01

Lincoln metar:
KLHM 271515Z AUTO 06003KT 10SM CLR 02/01 A3024 RMK AO1

Decoded:

station                        KLHM
observed_date Thu, 27 Feb 2020 15:15:00 +0000
observed_age 15 min. ago
wind_speed 3
wind_direction 60
wind_direction_label ENE
visibility_report 10 miles
present_weather_report Dry
clouds_report Clear skies
temperature_f 36
dew_point_f 34
humidity 93
wind_chill -1
wind_chill_f 30
barometer 30.24
remarks AO1